Terminal Aerodrome Forecast
Issued by NWS

Home | Current Version | Previous Version | Text Only | Print | Product List | Glossary On
Versions: 1 2 3 4 5 6 7 8 9 10 11 12 13 14 15 16
923
FTUS41 KBGM 130539
TAFELM
TAF
KELM 130539Z 1306/1406 23008KT P6SM SCT025
     FM130700 29010KT 3SM -SHSN OVC025
      TEMPO 1307/1309 1SM -SHSN BLSN OVC015
     FM131800 31015G25KT P6SM OVC050=

USA.gov is the U.S. government's official web portal to all federal, state and local government web resources and services.